sensor_id;sensor_type;location;lat;lon;timestamp;pressure;altitude;pressure_sealevel;temperature;humidity
12757;BME280;31601;48.042;12.240;2023-03-16T00:00:32;96594.75;;;4.45;68.97
12757;BME280;31601;48.042;12.240;2023-03-16T00:02:58;96589.53;;;4.45;68.94
12757;BME280;31601;48.042;12.240;2023-03-16T00:05:24;96588.03;;;4.43;68.97
12757;BME280;31601;48.042;12.240;2023-03-16T00:07:51;96587.50;;;4.39;68.87
12757;BME280;31601;48.042;12.240;2023-03-16T00:10:17;96593.91;;;4.35;69.13
12757;BME280;31601;48.042;12.240;2023-03-16T00:12:44;96597.47;;;4.34;68.96
12757;BME280;31601;48.042;12.240;2023-03-16T00:15:11;96601.84;;;4.24;69.25
12757;BME280;31601;48.042;12.240;2023-03-16T00:17:39;96595.16;;;4.31;68.95
12757;BME280;31601;48.042;12.240;2023-03-16T00:20:06;96592.53;;;4.21;69.09
12757;BME280;31601;48.042;12.240;2023-03-16T00:22:33;96592.25;;;4.15;69.43
12757;BME280;31601;48.042;12.240;2023-03-16T00:24:59;96607.28;;;4.21;69.29
12757;BME280;31601;48.042;12.240;2023-03-16T00:27:26;96606.34;;;4.22;69.63
12757;BME280;31601;48.042;12.240;2023-03-16T00:29:53;96603.75;;;4.22;69.44
12757;BME280;31601;48.042;12.240;2023-03-16T00:32:22;96591.19;;;4.17;69.54
12757;BME280;31601;48.042;12.240;2023-03-16T00:34:50;96593.78;;;4.17;69.60
12757;BME280;31601;48.042;12.240;2023-03-16T00:37:18;96591.44;;;4.24;69.52
12757;BME280;31601;48.042;12.240;2023-03-16T00:39:45;96595.25;;;4.20;69.38
12757;BME280;31601;48.042;12.240;2023-03-16T00:42:13;96599.09;;;4.16;69.35
12757;BME280;31601;48.042;12.240;2023-03-16T00:44:40;96594.19;;;4.12;69.53
12757;BME280;31601;48.042;12.240;2023-03-16T00:47:07;96591.44;;;4.14;69.40
12757;BME280;31601;48.042;12.240;2023-03-16T00:49:34;96599.91;;;4.16;69.49
12757;BME280;31601;48.042;12.240;2023-03-16T00:52:03;96601.69;;;4.16;69.82
12757;BME280;31601;48.042;12.240;2023-03-16T00:54:30;96593.84;;;3.96;69.81
12757;BME280;31601;48.042;12.240;2023-03-16T00:56:58;96592.25;;;4.05;69.57
12757;BME280;31601;48.042;12.240;2023-03-16T00:59:24;96602.78;;;4.03;69.73
12757;BME280;31601;48.042;12.240;2023-03-16T01:01:51;96601.91;;;3.93;69.75
12757;BME280;31601;48.042;12.240;2023-03-16T01:04:18;96602.47;;;3.97;69.93
12757;BME280;31601;48.042;12.240;2023-03-16T01:06:45;96592.47;;;3.92;70.09
12757;BME280;31601;48.042;12.240;2023-03-16T01:09:13;96592.59;;;3.81;69.98
12757;BME280;31601;48.042;12.240;2023-03-16T01:11:40;96591.13;;;3.88;69.66
12757;BME280;31601;48.042;12.240;2023-03-16T01:14:08;96588.09;;;3.83;69.70
12757;BME280;31601;48.042;12.240;2023-03-16T01:16:34;96581.22;;;3.72;70.07
12757;BME280;31601;48.042;12.240;2023-03-16T01:19:01;96582.84;;;3.63;70.28
12757;BME280;31601;48.042;12.240;2023-03-16T01:21:27;96581.72;;;3.56;70.41
12757;BME280;31601;48.042;12.240;2023-03-16T01:23:54;96595.78;;;3.53;69.93
12757;BME280;31601;48.042;12.240;2023-03-16T01:26:21;96587.59;;;3.58;69.63
12757;BME280;31601;48.042;12.240;2023-03-16T01:28:49;96587.97;;;3.44;69.80
12757;BME280;31601;48.042;12.240;2023-03-16T01:31:15;96582.78;;;3.44;69.50
12757;BME280;31601;48.042;12.240;2023-03-16T01:33:42;96587.09;;;3.33;70.05
12757;BME280;31601;48.042;12.240;2023-03-16T01:36:11;96587.31;;;3.20;70.23
12757;BME280;31601;48.042;12.240;2023-03-16T01:38:38;96583.72;;;3.12;70.67
12757;BME280;31601;48.042;12.240;2023-03-16T01:41:05;96578.91;;;3.07;71.00
12757;BME280;31601;48.042;12.240;2023-03-16T01:43:34;96576.31;;;3.07;70.82
12757;BME280;31601;48.042;12.240;2023-03-16T01:46:20;96588.94;;;2.91;71.06
12757;BME280;31601;48.042;12.240;2023-03-16T01:49:06;96578.94;;;2.86;71.28
12757;BME280;31601;48.042;12.240;2023-03-16T01:51:36;96575.97;;;2.91;71.05
12757;BME280;31601;48.042;12.240;2023-03-16T01:54:10;96577.34;;;2.95;71.29
12757;BME280;31601;48.042;12.240;2023-03-16T01:56:42;96575.22;;;3.00;71.18
12757;BME280;31601;48.042;12.240;2023-03-16T01:59:14;96565.34;;;2.94;71.40
12757;BME280;31601;48.042;12.240;2023-03-16T02:01:41;96567.31;;;3.01;71.60
12757;BME280;31601;48.042;12.240;2023-03-16T02:04:18;96569.63;;;3.04;71.62
12757;BME280;31601;48.042;12.240;2023-03-16T02:06:48;96568.25;;;3.00;71.37
12757;BME280;31601;48.042;12.240;2023-03-16T02:09:17;96552.19;;;3.07;71.67
12757;BME280;31601;48.042;12.240;2023-03-16T02:11:45;96553.50;;;3.01;71.96
12757;BME280;31601;48.042;12.240;2023-03-16T02:14:13;96553.13;;;3.05;71.94
12757;BME280;31601;48.042;12.240;2023-03-16T02:16:40;96552.34;;;3.15;71.57
12757;BME280;31601;48.042;12.240;2023-03-16T02:19:11;96556.03;;;3.12;71.58
12757;BME280;31601;48.042;12.240;2023-03-16T02:21:48;96550.19;;;3.20;71.94
12757;BME280;31601;48.042;12.240;2023-03-16T02:24:19;96559.44;;;3.13;71.90
12757;BME280;31601;48.042;12.240;2023-03-16T02:26:50;96554.03;;;3.26;71.98
12757;BME280;31601;48.042;12.240;2023-03-16T02:29:28;96560.69;;;3.18;71.87
12757;BME280;31601;48.042;12.240;2023-03-16T02:31:58;96560.97;;;2.94;72.46
12757;BME280;31601;48.042;12.240;2023-03-16T02:34:27;96561.31;;;2.80;72.98
12757;BME280;31601;48.042;12.240;2023-03-16T02:36:55;96559.31;;;2.93;72.97
12757;BME280;31601;48.042;12.240;2023-03-16T02:39:23;96562.88;;;2.92;72.98
12757;BME280;31601;48.042;12.240;2023-03-16T02:41:50;96565.13;;;3.07;72.90
12757;BME280;31601;48.042;12.240;2023-03-16T02:44:19;96563.69;;;3.14;72.80
12757;BME280;31601;48.042;12.240;2023-03-16T02:46:48;96571.19;;;3.17;72.62
12757;BME280;31601;48.042;12.240;2023-03-16T02:49:22;96567.03;;;3.04;72.86
12757;BME280;31601;48.042;12.240;2023-03-16T02:51:50;96563.75;;;3.02;72.56
12757;BME280;31601;48.042;12.240;2023-03-16T02:54:17;96564.09;;;3.19;72.38
12757;BME280;31601;48.042;12.240;2023-03-16T02:56:44;96561.88;;;3.35;71.95
12757;BME280;31601;48.042;12.240;2023-03-16T02:59:10;96567.88;;;3.36;72.09
12757;BME280;31601;48.042;12.240;2023-03-16T03:01:37;96565.66;;;3.31;71.99
12757;BME280;31601;48.042;12.240;2023-03-16T03:04:04;96564.72;;;3.32;71.93
12757;BME280;31601;48.042;12.240;2023-03-16T03:06:32;96561.72;;;3.37;71.57
12757;BME280;31601;48.042;12.240;2023-03-16T03:08:59;96570.28;;;2.97;72.01
12757;BME280;31601;48.042;12.240;2023-03-16T03:11:26;96566.06;;;3.05;72.00
12757;BME280;31601;48.042;12.240;2023-03-16T03:13:53;96570.78;;;2.91;71.88
12757;BME280;31601;48.042;12.240;2023-03-16T03:16:20;96579.63;;;2.88;72.04
12757;BME280;31601;48.042;12.240;2023-03-16T03:18:46;96572.63;;;2.79;72.36
12757;BME280;31601;48.042;12.240;2023-03-16T03:21:13;96580.38;;;2.79;72.26
12757;BME280;31601;48.042;12.240;2023-03-16T03:23:42;96563.00;;;2.69;72.07
12757;BME280;31601;48.042;12.240;2023-03-16T03:26:11;96568.44;;;2.66;72.39
12757;BME280;31601;48.042;12.240;2023-03-16T03:28:38;96567.50;;;2.67;72.83
12757;BME280;31601;48.042;12.240;2023-03-16T03:31:05;96567.38;;;2.69;73.17
12757;BME280;31601;48.042;12.240;2023-03-16T03:33:32;96566.75;;;2.77;72.92
12757;BME280;31601;48.042;12.240;2023-03-16T03:35:59;96568.75;;;2.73;73.01
12757;BME280;31601;48.042;12.240;2023-03-16T03:38:26;96563.84;;;2.49;73.16
12757;BME280;31601;48.042;12.240;2023-03-16T03:40:53;96568.75;;;2.73;72.76
12757;BME280;31601;48.042;12.240;2023-03-16T03:43:23;96568.94;;;2.60;73.32
12757;BME280;31601;48.042;12.240;2023-03-16T03:45:54;96571.03;;;2.66;73.24
12757;BME280;31601;48.042;12.240;2023-03-16T03:48:21;96569.09;;;2.80;72.81
12757;BME280;31601;48.042;12.240;2023-03-16T03:50:47;96573.94;;;2.73;72.86
12757;BME280;31601;48.042;12.240;2023-03-16T03:53:13;96563.00;;;2.69;73.01
12757;BME280;31601;48.042;12.240;2023-03-16T03:55:40;96561.13;;;2.50;73.49
12757;BME280;31601;48.042;12.240;2023-03-16T03:58:08;96568.31;;;2.89;72.27
12757;BME280;31601;48.042;12.240;2023-03-16T04:00:34;96571.59;;;2.91;72.16
12757;BME280;31601;48.042;12.240;2023-03-16T04:03:01;96569.91;;;3.01;71.81
12757;BME280;31601;48.042;12.240;2023-03-16T04:05:27;96568.06;;;2.92;72.08
12757;BME280;31601;48.042;12.240;2023-03-16T04:07:54;96574.00;;;2.83;72.06
12757;BME280;31601;48.042;12.240;2023-03-16T04:10:22;96561.72;;;2.64;72.32
12757;BME280;31601;48.042;12.240;2023-03-16T04:12:49;96563.47;;;2.54;72.75
12757;BME280;31601;48.042;12.240;2023-03-16T04:15:17;96554.59;;;2.56;72.21
12757;BME280;31601;48.042;12.240;2023-03-16T04:17:43;96566.16;;;2.52;71.93
12757;BME280;31601;48.042;12.240;2023-03-16T04:20:10;96559.59;;;2.48;72.53
12757;BME280;31601;48.042;12.240;2023-03-16T04:22:39;96556.50;;;2.54;72.16
12757;BME280;31601;48.042;12.240;2023-03-16T04:25:07;96571.88;;;2.35;72.13
12757;BME280;31601;48.042;12.240;2023-03-16T04:27:34;96569.06;;;2.59;71.88
12757;BME280;31601;48.042;12.240;2023-03-16T04:30:01;96565.34;;;2.51;72.03
12757;BME280;31601;48.042;12.240;2023-03-16T04:32:31;96569.13;;;2.47;72.20
12757;BME280;31601;48.042;12.240;2023-03-16T04:34:57;96565.22;;;2.53;71.79
12757;BME280;31601;48.042;12.240;2023-03-16T04:37:23;96567.84;;;2.42;72.08
12757;BME280;31601;48.042;12.240;2023-03-16T04:39:53;96563.47;;;2.54;72.10
12757;BME280;31601;48.042;12.240;2023-03-16T04:42:19;96570.25;;;2.33;72.40
12757;BME280;31601;48.042;12.240;2023-03-16T04:44:45;96568.22;;;2.37;72.52
12757;BME280;31601;48.042;12.240;2023-03-16T04:47:13;96564.69;;;2.59;72.23
12757;BME280;31601;48.042;12.240;2023-03-16T04:49:41;96562.06;;;2.49;71.80
12757;BME280;31601;48.042;12.240;2023-03-16T04:52:08;96569.38;;;2.65;71.72
12757;BME280;31601;48.042;12.240;2023-03-16T04:54:35;96566.66;;;2.67;72.00
12757;BME280;31601;48.042;12.240;2023-03-16T04:57:01;96569.13;;;2.47;72.13
12757;BME280;31601;48.042;12.240;2023-03-16T04:59:29;96569.19;;;2.57;72.10
12757;BME280;31601;48.042;12.240;2023-03-16T05:01:56;96572.47;;;2.59;72.02
12757;BME280;31601;48.042;12.240;2023-03-16T05:04:22;96572.22;;;2.62;71.75
12757;BME280;31601;48.042;12.240;2023-03-16T05:06:50;96566.78;;;2.65;71.52
12757;BME280;31601;48.042;12.240;2023-03-16T05:09:17;96572.53;;;2.48;71.36
12757;BME280;31601;48.042;12.240;2023-03-16T05:11:44;96567.34;;;2.48;71.42
12757;BME280;31601;48.042;12.240;2023-03-16T05:14:11;96572.00;;;2.33;72.14
12757;BME280;31601;48.042;12.240;2023-03-16T05:16:37;96557.44;;;1.88;72.34
12757;BME280;31601;48.042;12.240;2023-03-16T05:19:03;96555.41;;;2.03;72.14
12757;BME280;31601;48.042;12.240;2023-03-16T05:21:30;96558.84;;;1.92;72.03
12757;BME280;31601;48.042;12.240;2023-03-16T05:23:59;96566.72;;;1.91;72.04
12757;BME280;31601;48.042;12.240;2023-03-16T05:26:26;96570.97;;;1.81;72.06
12757;BME280;31601;48.042;12.240;2023-03-16T05:28:52;96564.47;;;1.97;72.18
12757;BME280;31601;48.042;12.240;2023-03-16T05:31:18;96566.94;;;1.99;72.21
12757;BME280;31601;48.042;12.240;2023-03-16T05:33:45;96567.53;;;2.03;72.09
12757;BME280;31601;48.042;12.240;2023-03-16T05:36:12;96564.91;;;1.70;72.74
12757;BME280;31601;48.042;12.240;2023-03-16T05:38:38;96563.16;;;1.59;73.25
12757;BME280;31601;48.042;12.240;2023-03-16T05:41:06;96559.13;;;1.67;73.36
12757;BME280;31601;48.042;12.240;2023-03-16T05:43:32;96561.41;;;1.49;73.97
12757;BME280;31601;48.042;12.240;2023-03-16T05:46:00;96558.94;;;1.47;73.71
12757;BME280;31601;48.042;12.240;2023-03-16T05:48:26;96562.94;;;1.29;73.88
12757;BME280;31601;48.042;12.240;2023-03-16T05:50:52;96552.22;;;1.56;73.91
12757;BME280;31601;48.042;12.240;2023-03-16T05:53:19;96555.47;;;1.81;73.70
12757;BME280;31601;48.042;12.240;2023-03-16T05:55:50;96551.28;;;2.01;73.41
12757;BME280;31601;48.042;12.240;2023-03-16T05:58:19;96548.25;;;1.95;73.02
12757;BME280;31601;48.042;12.240;2023-03-16T06:00:45;96550.34;;;2.02;72.81
12757;BME280;31601;48.042;12.240;2023-03-16T06:03:12;96551.16;;;2.02;73.10
12757;BME280;31601;48.042;12.240;2023-03-16T06:05:38;96549.50;;;2.12;72.56
12757;BME280;31601;48.042;12.240;2023-03-16T06:08:05;96543.50;;;2.12;72.19
12757;BME280;31601;48.042;12.240;2023-03-16T06:10:33;96551.03;;;2.04;72.14
12757;BME280;31601;48.042;12.240;2023-03-16T06:12:59;96546.97;;;2.01;71.85
12757;BME280;31601;48.042;12.240;2023-03-16T06:15:27;96546.41;;;1.86;72.14
12757;BME280;31601;48.042;12.240;2023-03-16T06:17:54;96539.81;;;1.82;72.33
12757;BME280;31601;48.042;12.240;2023-03-16T06:20:21;96540.28;;;1.87;72.48
12757;BME280;31601;48.042;12.240;2023-03-16T06:22:47;96554.44;;;1.72;72.77
12757;BME280;31601;48.042;12.240;2023-03-16T06:25:14;96553.47;;;1.73;72.49
12757;BME280;31601;48.042;12.240;2023-03-16T06:27:41;96544.09;;;1.72;72.87
12757;BME280;31601;48.042;12.240;2023-03-16T06:30:09;96554.59;;;1.48;72.81
12757;BME280;31601;48.042;12.240;2023-03-16T06:32:38;96550.88;;;1.84;72.16
12757;BME280;31601;48.042;12.240;2023-03-16T06:35:07;96551.06;;;1.37;73.34
12757;BME280;31601;48.042;12.240;2023-03-16T06:37:34;96550.00;;;1.63;72.94
12757;BME280;31601;48.042;12.240;2023-03-16T06:40:00;96560.47;;;1.38;73.71
12757;BME280;31601;48.042;12.240;2023-03-16T06:42:26;96551.06;;;1.49;73.29
12757;BME280;31601;48.042;12.240;2023-03-16T06:44:53;96552.25;;;1.88;73.03
12757;BME280;31601;48.042;12.240;2023-03-16T06:47:19;96552.03;;;2.24;72.84
12757;BME280;31601;48.042;12.240;2023-03-16T06:49:47;96558.63;;;2.28;72.07
12757;BME280;31601;48.042;12.240;2023-03-16T06:52:16;96553.56;;;2.26;72.02
12757;BME280;31601;48.042;12.240;2023-03-16T06:54:42;96558.88;;;2.25;71.67
12757;BME280;31601;48.042;12.240;2023-03-16T06:57:09;96557.31;;;2.33;71.62
12757;BME280;31601;48.042;12.240;2023-03-16T06:59:35;96553.75;;;2.35;71.72
12757;BME280;31601;48.042;12.240;2023-03-16T07:02:02;96547.06;;;2.53;71.50
12757;BME280;31601;48.042;12.240;2023-03-16T07:04:28;96558.66;;;2.49;71.59
12757;BME280;31601;48.042;12.240;2023-03-16T07:06:56;96563.50;;;2.63;70.78
12757;BME280;31601;48.042;12.240;2023-03-16T07:09:22;96572.09;;;2.43;71.60
12757;BME280;31601;48.042;12.240;2023-03-16T07:11:49;96563.00;;;2.48;71.59
12757;BME280;31601;48.042;12.240;2023-03-16T07:14:16;96561.31;;;2.80;71.20
12757;BME280;31601;48.042;12.240;2023-03-16T07:16:44;96556.00;;;2.60;71.60
12757;BME280;31601;48.042;12.240;2023-03-16T07:19:10;96561.09;;;2.93;70.77
12757;BME280;31601;48.042;12.240;2023-03-16T07:21:36;96556.84;;;2.92;71.13
12757;BME280;31601;48.042;12.240;2023-03-16T07:24:07;96562.56;;;2.64;71.14
12757;BME280;31601;48.042;12.240;2023-03-16T07:26:34;96565.09;;;2.76;71.36
12757;BME280;31601;48.042;12.240;2023-03-16T07:29:01;96561.09;;;2.72;71.47
12757;BME280;31601;48.042;12.240;2023-03-16T07:31:28;96561.03;;;3.04;71.77
12757;BME280;31601;48.042;12.240;2023-03-16T07:33:56;96555.53;;;2.97;70.71
12757;BME280;31601;48.042;12.240;2023-03-16T07:36:23;96550.66;;;3.04;70.70
12757;BME280;31601;48.042;12.240;2023-03-16T07:38:49;96555.84;;;3.35;70.25
12757;BME280;31601;48.042;12.240;2023-03-16T07:41:17;96549.97;;;3.33;70.38
12757;BME280;31601;48.042;12.240;2023-03-16T07:43:43;96558.03;;;3.39;70.15
12757;BME280;31601;48.042;12.240;2023-03-16T07:46:10;96562.03;;;3.53;70.53
12757;BME280;31601;48.042;12.240;2023-03-16T07:48:37;96558.25;;;3.67;69.73
12757;BME280;31601;48.042;12.240;2023-03-16T07:51:04;96571.63;;;4.03;68.74
12757;BME280;31601;48.042;12.240;2023-03-16T07:53:31;96562.31;;;4.10;68.45
12757;BME280;31601;48.042;12.240;2023-03-16T07:55:57;96567.50;;;4.10;68.47
12757;BME280;31601;48.042;12.240;2023-03-16T07:58:25;96572.03;;;4.28;67.91
12757;BME280;31601;48.042;12.240;2023-03-16T08:00:51;96571.22;;;4.37;67.87
12757;BME280;31601;48.042;12.240;2023-03-16T08:03:20;96575.00;;;3.94;68.28
12757;BME280;31601;48.042;12.240;2023-03-16T08:05:47;96579.13;;;4.26;67.86
12757;BME280;31601;48.042;12.240;2023-03-16T08:08:14;96572.16;;;3.97;68.57
12757;BME280;31601;48.042;12.240;2023-03-16T08:10:40;96579.69;;;4.20;68.07
12757;BME280;31601;48.042;12.240;2023-03-16T08:13:07;96577.38;;;4.46;67.74
12757;BME280;31601;48.042;12.240;2023-03-16T08:15:35;96573.00;;;4.56;66.90
12757;BME280;31601;48.042;12.240;2023-03-16T08:18:01;96573.91;;;4.94;66.45
12757;BME280;31601;48.042;12.240;2023-03-16T08:20:27;96572.22;;;5.13;65.31
12757;BME280;31601;48.042;12.240;2023-03-16T08:22:54;96577.13;;;5.26;64.89
12757;BME280;31601;48.042;12.240;2023-03-16T08:25:20;96573.84;;;5.14;64.95
12757;BME280;31601;48.042;12.240;2023-03-16T08:27:47;96575.41;;;4.97;65.30
12757;BME280;31601;48.042;12.240;2023-03-16T08:30:14;96572.16;;;4.65;66.02
12757;BME280;31601;48.042;12.240;2023-03-16T08:32:42;96581.91;;;4.34;66.41
12757;BME280;31601;48.042;12.240;2023-03-16T08:35:11;96577.50;;;4.44;67.47
12757;BME280;31601;48.042;12.240;2023-03-16T08:37:38;96585.69;;;4.40;66.53
12757;BME280;31601;48.042;12.240;2023-03-16T08:40:06;96578.00;;;4.97;66.65
12757;BME280;31601;48.042;12.240;2023-03-16T08:42:34;96571.97;;;5.71;66.37
12757;BME280;31601;48.042;12.240;2023-03-16T08:45:03;96570.53;;;5.97;63.39
12757;BME280;31601;48.042;12.240;2023-03-16T08:47:33;96580.50;;;5.64;62.86
12757;BME280;31601;48.042;12.240;2023-03-16T08:50:01;96574.41;;;5.45;62.55
12757;BME280;31601;48.042;12.240;2023-03-16T08:52:27;96581.09;;;5.85;62.38
12757;BME280;31601;48.042;12.240;2023-03-16T08:54:54;96575.28;;;5.73;61.75
12757;BME280;31601;48.042;12.240;2023-03-16T08:57:20;96581.09;;;5.85;62.16
12757;BME280;31601;48.042;12.240;2023-03-16T08:59:47;96576.88;;;6.12;63.28
12757;BME280;31601;48.042;12.240;2023-03-16T09:02:14;96573.28;;;6.67;61.75
12757;BME280;31601;48.042;12.240;2023-03-16T09:04:40;96566.25;;;7.38;59.68
12757;BME280;31601;48.042;12.240;2023-03-16T09:07:08;96573.56;;;6.64;59.90
12757;BME280;31601;48.042;12.240;2023-03-16T09:09:36;96577.69;;;6.13;60.89
12757;BME280;31601;48.042;12.240;2023-03-16T09:12:02;96575.13;;;6.21;61.48
12757;BME280;31601;48.042;12.240;2023-03-16T09:14:30;96578.19;;;5.88;62.14
12757;BME280;31601;48.042;12.240;2023-03-16T09:16:56;96575.44;;;6.00;62.29
12757;BME280;31601;48.042;12.240;2023-03-16T09:19:23;96579.84;;;5.89;61.91
12757;BME280;31601;48.042;12.240;2023-03-16T09:21:50;96580.66;;;5.62;62.18
12757;BME280;31601;48.042;12.240;2023-03-16T09:24:19;96585.84;;;6.00;61.89
12757;BME280;31601;48.042;12.240;2023-03-16T09:26:45;96586.59;;;6.10;61.17
12757;BME280;31601;48.042;12.240;2023-03-16T09:29:11;96575.84;;;5.67;60.78
12757;BME280;31601;48.042;12.240;2023-03-16T09:31:38;96581.59;;;5.99;60.64
12757;BME280;31601;48.042;12.240;2023-03-16T09:34:05;96579.22;;;6.05;61.71
12757;BME280;31601;48.042;12.240;2023-03-16T09:36:31;96569.72;;;6.14;59.69
12757;BME280;31601;48.042;12.240;2023-03-16T09:38:58;96563.94;;;6.38;59.98
12757;BME280;31601;48.042;12.240;2023-03-16T09:41:40;96562.31;;;6.81;59.29
12757;BME280;31601;48.042;12.240;2023-03-16T09:44:25;96558.72;;;7.09;57.68
12757;BME280;31601;48.042;12.240;2023-03-16T09:46:56;96560.41;;;7.18;57.47
12757;BME280;31601;48.042;12.240;2023-03-16T09:49:27;96558.72;;;7.35;55.43
12757;BME280;31601;48.042;12.240;2023-03-16T09:52:01;96562.06;;;7.53;55.96
12757;BME280;31601;48.042;12.240;2023-03-16T09:54:36;96563.31;;;7.41;55.92
12757;BME280;31601;48.042;12.240;2023-03-16T09:57:15;96557.53;;;7.56;56.95
12757;BME280;31601;48.042;12.240;2023-03-16T09:59:43;96558.97;;;7.93;56.47
12757;BME280;31601;48.042;12.240;2023-03-16T10:02:33;96559.00;;;7.58;56.56
12757;BME280;31601;48.042;12.240;2023-03-16T10:05:07;96552.66;;;7.26;54.22
12757;BME280;31601;48.042;12.240;2023-03-16T10:07:43;96554.91;;;7.56;54.07
12757;BME280;31601;48.042;12.240;2023-03-16T10:10:20;96545.69;;;7.78;54.99
12757;BME280;31601;48.042;12.240;2023-03-16T10:12:56;96543.19;;;8.19;54.46
12757;BME280;31601;48.042;12.240;2023-03-16T10:15:26;96547.56;;;8.10;53.50
12757;BME280;31601;48.042;12.240;2023-03-16T10:17:56;96543.34;;;8.17;53.59
12757;BME280;31601;48.042;12.240;2023-03-16T10:20:27;96543.41;;;7.83;53.77
12757;BME280;31601;48.042;12.240;2023-03-16T10:22:57;96546.72;;;7.85;54.71
12757;BME280;31601;48.042;12.240;2023-03-16T10:25:30;96541.88;;;8.06;53.72
12757;BME280;31601;48.042;12.240;2023-03-16T10:28:00;96539.78;;;8.43;53.63
12757;BME280;31601;48.042;12.240;2023-03-16T10:30:28;96531.78;;;8.36;52.43
12757;BME280;31601;48.042;12.240;2023-03-16T10:33:00;96544.03;;;8.36;51.27
12757;BME280;31601;48.042;12.240;2023-03-16T10:35:38;96539.31;;;8.48;49.78
12757;BME280;31601;48.042;12.240;2023-03-16T10:38:06;96538.28;;;8.32;48.94
12757;BME280;31601;48.042;12.240;2023-03-16T10:40:35;96536.03;;;8.37;51.14
12757;BME280;31601;48.042;12.240;2023-03-16T10:43:11;96538.88;;;8.01;51.96
12757;BME280;31601;48.042;12.240;2023-03-16T10:45:38;96537.75;;;7.96;51.44
12757;BME280;31601;48.042;12.240;2023-03-16T10:48:10;96533.00;;;7.91;51.56
12757;BME280;31601;48.042;12.240;2023-03-16T10:50:38;96529.13;;;8.03;49.85
12757;BME280;31601;48.042;12.240;2023-03-16T10:53:14;96522.91;;;8.04;50.59
12757;BME280;31601;48.042;12.240;2023-03-16T10:55:42;96522.97;;;8.54;50.90
12757;BME280;31601;48.042;12.240;2023-03-16T10:58:22;96517.41;;;8.49;51.34
12757;BME280;31601;48.042;12.240;2023-03-16T11:00:49;96518.69;;;9.02;51.46
12757;BME280;31601;48.042;12.240;2023-03-16T11:03:23;96518.03;;;9.08;48.74
12757;BME280;31601;48.042;12.240;2023-03-16T11:05:59;96516.38;;;9.07;51.36
12757;BME280;31601;48.042;12.240;2023-03-16T11:08:30;96511.75;;;9.26;49.35
12757;BME280;31601;48.042;12.240;2023-03-16T11:10:59;96504.03;;;9.41;48.26
12757;BME280;31601;48.042;12.240;2023-03-16T11:13:32;96494.34;;;9.41;49.00
12757;BME280;31601;48.042;12.240;2023-03-16T11:16:02;96496.63;;;9.44;49.17
12757;BME280;31601;48.042;12.240;2023-03-16T11:18:34;96491.28;;;9.69;48.81
12757;BME280;31601;48.042;12.240;2023-03-16T11:21:07;96481.38;;;9.56;49.27
12757;BME280;31601;48.042;12.240;2023-03-16T11:23:40;96481.66;;;9.22;48.00
12757;BME280;31601;48.042;12.240;2023-03-16T11:26:14;96479.28;;;9.04;49.41
12757;BME280;31601;48.042;12.240;2023-03-16T11:28:49;96478.94;;;9.46;50.52
12757;BME280;31601;48.042;12.240;2023-03-16T11:31:21;96471.81;;;9.32;49.77
12757;BME280;31601;48.042;12.240;2023-03-16T11:33:51;96475.72;;;9.28;51.27
12757;BME280;31601;48.042;12.240;2023-03-16T11:36:29;96471.84;;;9.16;50.74
12757;BME280;31601;48.042;12.240;2023-03-16T11:39:06;96463.75;;;9.73;48.71
12757;BME280;31601;48.042;12.240;2023-03-16T11:41:46;96457.75;;;9.33;49.81
12757;BME280;31601;48.042;12.240;2023-03-16T11:44:22;96450.66;;;8.94;48.86
12757;BME280;31601;48.042;12.240;2023-03-16T11:46:56;96459.78;;;9.14;49.55
12757;BME280;31601;48.042;12.240;2023-03-16T11:49:49;96445.34;;;9.19;49.13
12757;BME280;31601;48.042;12.240;2023-03-16T11:52:26;96449.97;;;9.08;48.62
12757;BME280;31601;48.042;12.240;2023-03-16T11:55:02;96438.84;;;9.14;48.20
12757;BME280;31601;48.042;12.240;2023-03-16T11:57:41;96435.53;;;9.12;48.57
12757;BME280;31601;48.042;12.240;2023-03-16T12:00:30;96439.53;;;8.92;47.14
12757;BME280;31601;48.042;12.240;2023-03-16T12:03:24;96425.50;;;8.93;47.60
12757;BME280;31601;48.042;12.240;2023-03-16T12:05:57;96424.06;;;9.22;45.91
12757;BME280;31601;48.042;12.240;2023-03-16T12:08:47;96419.03;;;9.43;45.62
12757;BME280;31601;48.042;12.240;2023-03-16T12:11:20;96421.31;;;9.46;46.50
12757;BME280;31601;48.042;12.240;2023-03-16T12:13:57;96422.50;;;9.44;46.33
12757;BME280;31601;48.042;12.240;2023-03-16T12:16:30;96406.28;;;9.72;44.91
12757;BME280;31601;48.042;12.240;2023-03-16T12:19:00;96412.50;;;9.71;44.51
12757;BME280;31601;48.042;12.240;2023-03-16T12:21:30;96399.50;;;9.85;44.95
12757;BME280;31601;48.042;12.240;2023-03-16T12:24:01;96398.66;;;9.85;46.07
12757;BME280;31601;48.042;12.240;2023-03-16T12:26:32;96402.69;;;9.41;45.05
12757;BME280;31601;48.042;12.240;2023-03-16T12:29:03;96388.06;;;9.55;47.42
12757;BME280;31601;48.042;12.240;2023-03-16T12:31:40;96385.84;;;9.67;46.37
12757;BME280;31601;48.042;12.240;2023-03-16T12:34:19;96398.53;;;9.78;46.55
12757;BME280;31601;48.042;12.240;2023-03-16T12:36:57;96386.53;;;10.07;43.96
12757;BME280;31601;48.042;12.240;2023-03-16T12:39:34;96381.50;;;10.20;43.99
12757;BME280;31601;48.042;12.240;2023-03-16T12:42:21;96380.47;;;10.07;45.95
12757;BME280;31601;48.042;12.240;2023-03-16T12:44:55;96381.31;;;10.07;45.17
12757;BME280;31601;48.042;12.240;2023-03-16T12:47:28;96376.81;;;9.93;43.59
12757;BME280;31601;48.042;12.240;2023-03-16T12:50:03;96377.41;;;10.03;44.76
12757;BME280;31601;48.042;12.240;2023-03-16T12:52:38;96376.81;;;9.93;45.65
12757;BME280;31601;48.042;12.240;2023-03-16T12:55:11;96372.22;;;9.95;46.27
12757;BME280;31601;48.042;12.240;2023-03-16T12:57:39;96369.19;;;9.83;45.47
12757;BME280;31601;48.042;12.240;2023-03-16T13:00:09;96380.47;;;9.83;46.04
12757;BME280;31601;48.042;12.240;2023-03-16T13:02:41;96361.50;;;9.81;44.89
12757;BME280;31601;48.042;12.240;2023-03-16T13:05:11;96358.97;;;9.73;44.08
12757;BME280;31601;48.042;12.240;2023-03-16T13:07:45;96358.72;;;9.60;44.31
12757;BME280;31601;48.042;12.240;2023-03-16T13:10:13;96359.03;;;9.34;44.41